createdAt,value
2023-01-30T00:02:57.365Z,2.44
2023-01-30T00:07:53.883Z,2.51
2023-01-30T00:12:51.122Z,2.47
2023-01-30T00:17:47.724Z,2.44
2023-01-30T00:22:59.248Z,2.57
2023-01-30T00:27:59.214Z,2.55
2023-01-30T00:32:55.766Z,2.42
2023-01-30T00:37:55.022Z,2.52
2023-01-30T00:48:07.032Z,2.47
2023-01-30T00:53:03.681Z,2.55
2023-01-30T00:58:00.345Z,2.59
2023-01-30T01:02:57.584Z,2.53
2023-01-30T01:07:55.594Z,2.50
2023-01-30T01:12:53.590Z,2.57
2023-01-30T01:17:50.479Z,2.62
2023-01-30T01:22:49.907Z,2.55
2023-01-30T01:27:47.243Z,2.68
2023-01-30T01:32:46.464Z,2.70
2023-01-30T01:37:43.293Z,2.81
2023-01-30T01:42:40.174Z,2.97
2023-01-30T01:47:40.209Z,2.98
2023-01-30T01:52:36.866Z,3.16
2023-01-30T01:57:34.972Z,3.10
2023-01-30T02:02:32.983Z,3.13
2023-01-30T02:07:34.573Z,3.18
2023-01-30T02:12:31.304Z,3.29
2023-01-30T02:17:28.102Z,3.32
2023-01-30T02:22:40.592Z,3.38
2023-01-30T02:27:51.569Z,3.01
2023-01-30T02:32:55.576Z,2.83
2023-01-30T02:38:02.132Z,2.86
2023-01-30T02:43:04.876Z,3.03
2023-01-30T02:48:04.083Z,2.84
2023-01-30T02:53:00.912Z,2.64
2023-01-30T02:57:57.831Z,2.85
2023-01-30T03:03:07.097Z,2.63
2023-01-30T03:08:12.174Z,2.50
2023-01-30T03:13:12.839Z,2.21
2023-01-30T03:18:10.013Z,2.31
2023-01-30T03:23:08.575Z,2.18
2023-01-30T03:28:06.616Z,2.57
2023-01-30T03:33:03.344Z,2.78
2023-01-30T03:38:00.145Z,3.09
2023-01-30T03:42:57.849Z,3.21
2023-01-30T03:47:54.624Z,3.38
2023-01-30T03:52:51.422Z,3.21
2023-01-30T03:57:54.298Z,3.11
2023-01-30T04:02:53.195Z,3.36
2023-01-30T04:07:50.744Z,3.39
2023-01-30T04:12:49.032Z,3.11
2023-01-30T04:17:47.177Z,2.73
2023-01-30T04:22:54.030Z,2.47
2023-01-30T04:27:50.738Z,2.57
2023-01-30T04:32:51.876Z,2.61
2023-01-30T04:37:49.335Z,2.64
2023-01-30T04:42:50.198Z,2.57
2023-01-30T04:48:07.583Z,2.91
2023-01-30T04:53:05.059Z,2.67
2023-01-30T04:58:02.570Z,2.48
2023-01-30T05:02:59.646Z,2.64
2023-01-30T05:07:58.548Z,2.38
2023-01-30T05:12:55.139Z,2.50
2023-01-30T05:17:52.499Z,2.41
2023-01-30T05:22:49.165Z,2.23
2023-01-30T05:27:45.954Z,1.93
2023-01-30T05:32:42.709Z,1.97
2023-01-30T05:37:41.064Z,1.95
2023-01-30T05:42:37.785Z,2.10
2023-01-30T05:47:34.479Z,2.16
2023-01-30T05:52:31.225Z,1.99
2023-01-30T05:57:31.197Z,2.15
2023-01-30T06:02:28.097Z,2.32
2023-01-30T06:07:26.045Z,2.33
2023-01-30T06:12:23.202Z,2.48
2023-01-30T06:17:20.514Z,2.40
2023-01-30T06:22:17.396Z,2.40
2023-01-30T06:27:14.153Z,2.57
2023-01-30T06:32:10.921Z,2.56
2023-01-30T06:37:08.460Z,2.38
2023-01-30T06:42:07.445Z,2.41
2023-01-30T06:47:04.669Z,2.36
2023-01-30T06:52:01.731Z,2.15
2023-01-30T06:56:59.300Z,2.13
2023-01-30T07:01:56.315Z,2.29
2023-01-30T07:06:53.231Z,2.34
2023-01-30T07:11:50.459Z,2.47
2023-01-30T07:16:47.954Z,2.49
2023-01-30T07:21:44.696Z,2.53
2023-01-30T07:26:41.534Z,2.54
2023-01-30T07:31:41.842Z,2.54
2023-01-30T07:37:08.192Z,2.61
2023-01-30T09:31:57.520Z,3.87
2023-01-30T09:43:23.670Z,3.63
2023-01-30T09:48:24.927Z,3.62
2023-01-30T09:53:24.643Z,3.48
2023-01-30T09:58:22.863Z,3.55
2023-01-30T10:03:21.028Z,3.43
2023-01-30T10:08:32.534Z,3.51
2023-01-30T10:13:46.177Z,3.52
2023-01-30T10:18:49.491Z,3.20
2023-01-30T10:24:02.824Z,3.35
2023-01-30T10:29:07.546Z,3.51
2023-01-30T10:34:06.380Z,3.46
2023-01-30T10:39:04.350Z,3.30
2023-01-30T10:44:03.680Z,2.67
2023-01-30T10:49:02.590Z,2.27
2023-01-30T10:54:02.829Z,2.40
2023-01-30T10:59:03.585Z,2.79
2023-01-30T11:04:09.556Z,2.52
2023-01-30T11:09:08.354Z,2.13
2023-01-30T11:14:08.950Z,1.63
2023-01-30T11:19:22.743Z,1.53
2023-01-30T11:24:20.456Z,1.44
2023-01-30T11:29:24.672Z,1.54
2023-01-30T11:34:24.263Z,1.86
2023-01-30T11:39:24.832Z,2.16
2023-01-30T11:44:25.344Z,2.44
2023-01-30T11:49:47.302Z,1.96
2023-01-30T11:54:46.130Z,1.96
2023-01-30T11:59:53.893Z,2.27
2023-01-30T12:04:56.163Z,2.62
2023-01-30T12:10:03.070Z,2.59
2023-01-30T12:15:21.173Z,2.17
2023-01-30T12:20:26.595Z,2.18
2023-01-30T12:25:25.538Z,2.44
2023-01-30T12:30:26.796Z,2.37
2023-01-30T12:35:28.496Z,2.44
2023-01-30T12:40:30.983Z,2.47
2023-01-30T12:45:36.185Z,2.73
2023-01-30T12:50:41.156Z,2.15
2023-01-30T12:55:44.171Z,2.24
2023-01-30T13:00:47.816Z,2.41
2023-01-30T13:06:05.376Z,2.55
2023-01-30T13:11:31.848Z,2.79
2023-01-30T13:17:01.400Z,2.98
2023-01-30T13:22:04.038Z,3.10
2023-01-30T13:28:00.546Z,2.54
2023-01-30T13:32:55.834Z,2.31
2023-01-30T13:38:03.397Z,2.36
2023-01-30T13:43:20.640Z,2.67
2023-01-30T14:00:39.440Z,3.23
2023-01-30T14:05:56.293Z,3.11
2023-01-30T14:10:55.130Z,2.75
2023-01-30T14:15:54.096Z,2.85
2023-01-30T14:20:51.579Z,2.70
2023-01-30T14:25:49.309Z,2.57
2023-01-30T14:30:47.399Z,2.52
2023-01-30T14:35:44.099Z,2.55
2023-01-30T14:40:47.563Z,2.46
2023-01-30T14:52:30.677Z,2.49
2023-01-30T14:57:32.070Z,2.37
2023-01-30T15:02:30.326Z,2.42
2023-01-30T15:07:29.793Z,2.33
2023-01-30T15:12:36.276Z,2.54
2023-01-30T15:17:41.788Z,2.48
2023-01-30T15:23:05.270Z,2.43
2023-01-30T15:28:15.664Z,2.62
2023-01-30T15:33:19.851Z,2.53
2023-01-30T15:38:24.816Z,2.64
2023-01-30T15:43:33.817Z,2.64
2023-01-30T15:48:41.308Z,2.88
2023-01-30T15:53:41.825Z,2.76
2023-01-30T15:58:41.135Z,2.60
2023-01-30T16:03:42.224Z,2.70
2023-01-30T16:08:41.071Z,2.78
2023-01-30T16:13:39.193Z,2.64
2023-01-30T16:18:45.748Z,2.78
2023-01-30T16:23:52.605Z,2.69
2023-01-30T16:28:50.254Z,2.80
2023-01-30T16:33:49.985Z,2.66
2023-01-30T16:38:48.159Z,2.84
2023-01-30T16:43:45.139Z,2.89
2023-01-30T16:48:42.803Z,3.01
2023-01-30T16:53:47.792Z,2.87
2023-01-30T16:58:47.660Z,2.85
2023-01-30T17:03:51.368Z,2.84
2023-01-30T17:08:53.613Z,2.54
2023-01-30T17:14:11.477Z,2.35
2023-01-30T17:19:08.431Z,2.19
2023-01-30T17:24:06.942Z,2.18
2023-01-30T17:29:04.998Z,2.27
2023-01-30T17:34:02.912Z,1.96
2023-01-30T17:38:59.803Z,1.87
2023-01-30T17:44:03.433Z,1.89
2023-01-30T17:49:01.143Z,1.92
2023-01-30T17:54:00.554Z,1.95
2023-01-30T17:59:01.636Z,1.92
2023-01-30T18:04:45.176Z,1.90
2023-01-30T18:09:42.163Z,1.78
2023-01-30T18:14:38.849Z,1.95
2023-01-30T18:19:36.277Z,1.76
2023-01-30T18:24:33.693Z,1.54
2023-01-30T18:29:30.504Z,1.66
2023-01-30T18:34:27.283Z,1.34
2023-01-30T18:39:24.825Z,1.53
2023-01-30T18:44:32.056Z,1.62
2023-01-30T18:49:29.943Z,1.61
2023-01-30T18:54:29.741Z,1.52
2023-01-30T18:59:26.568Z,1.51
2023-01-30T19:04:25.368Z,1.62
2023-01-30T19:09:22.188Z,1.42
2023-01-30T19:14:19.584Z,1.55
2023-01-30T19:19:16.202Z,1.73
2023-01-30T19:24:13.953Z,1.70
2023-01-30T19:29:10.523Z,1.56
2023-01-30T19:34:08.300Z,1.36
2023-01-30T19:39:05.455Z,1.51
2023-01-30T19:44:02.989Z,1.24
2023-01-30T19:48:59.697Z,1.61
2023-01-30T19:53:57.898Z,1.38
2023-01-30T19:58:55.538Z,1.25
2023-01-30T20:03:54.292Z,1.56
2023-01-30T20:08:53.697Z,1.78
2023-01-30T20:13:51.371Z,1.60
2023-01-30T20:18:48.374Z,1.79
2023-01-30T20:23:45.243Z,1.64
2023-01-30T20:28:41.986Z,1.75
2023-01-30T20:33:39.730Z,1.67
2023-01-30T20:38:46.419Z,1.78
2023-01-30T20:43:44.694Z,1.69
2023-01-30T20:48:42.333Z,1.74
2023-01-30T20:53:39.995Z,1.62
2023-01-30T20:58:37.120Z,1.49
2023-01-30T21:03:33.716Z,1.54
2023-01-30T21:08:31.174Z,1.56
2023-01-30T21:13:27.984Z,1.67
2023-01-30T21:18:24.818Z,1.65
2023-01-30T21:23:21.583Z,1.64
2023-01-30T21:28:18.994Z,1.72
2023-01-30T21:33:15.718Z,1.66
2023-01-30T21:38:30.657Z,1.85
2023-01-30T21:43:28.001Z,1.84
2023-01-30T21:48:24.791Z,1.68
2023-01-30T21:53:21.360Z,1.70
2023-01-30T21:58:18.230Z,1.79
2023-01-30T22:03:15.634Z,1.88
2023-01-30T22:08:12.244Z,1.83
2023-01-30T22:13:08.931Z,1.93
2023-01-30T22:18:05.662Z,1.94
2023-01-30T22:23:02.979Z,1.99
2023-01-30T22:27:59.637Z,2.01
2023-01-30T22:32:56.474Z,2.02
2023-01-30T22:37:53.069Z,2.00
2023-01-30T22:42:50.465Z,2.18
2023-01-30T22:47:47.151Z,2.03
2023-01-30T22:52:43.943Z,2.09
2023-01-30T22:57:40.581Z,2.20
2023-01-30T23:02:38.259Z,2.09
2023-01-30T23:07:34.891Z,2.12
2023-01-30T23:12:49.662Z,2.07
2023-01-30T23:18:05.106Z,1.99
2023-01-30T23:23:02.641Z,1.82
2023-01-30T23:27:59.739Z,2.06
2023-01-30T23:32:58.214Z,1.97
2023-01-30T23:38:13.067Z,1.96
2023-01-30T23:43:09.816Z,2.10
2023-01-30T23:48:08.048Z,2.12
2023-01-30T23:53:04.890Z,2.12
2023-01-30T23:58:01.608Z,2.21
